PWSweather.com
Personal Weather Stations
Station Observations
ABQWX
Albuquerque, NM 87110

Albuquerque, NM 87110

Lat: 35.1305, Lon: -106.58571

Elevation: 5210

Station Type: LaCrosse

http://www.albuquerqueweather.info/

High Low Average
Temperature 74.8°F23.8°F 42.3°F5.7°F 57.5°F14.2°F
Dew Point 26.9°F-2.8°F 15.2°F-9.3°F 21.6°F-5.8°F
Winds 6.9 mph E11.1 mph E Calm Calm 2.3 mph 3.7 mph
Wind Gusts 11.9 mph19.2 mph -- 4.2 mph6.8 mph
Humidity 36% 16% 26%
Pressure 30.27 in1025.10 in 30.18 in1022.00 in -
Precipitation 0.00 in0.00 in - -
Hour Temp Dew Point Humidity Winds Wind Gusts Pressure Precip Precip Rate Daily Precip Total
12:00 AM 48.6°F9.2°C 21.4°F-5.9°C 34% 0.7 mph E1.1 kmh E 2.2 mph3.5 kmh 30.19 in1022.4 mb 0.00 in0.0 mm 0.00 in/hr0.0 mm/hr 0.00 in0.0 mm
01:00 AM 47.3°F8.5°C 21.7°F-5.7°C 36% 0.8 mph E1.3 kmh E 1.1 mph1.8 kmh 30.20 in1022.7 mb 0.00 in0.0 mm 0.00 in/hr0.0 mm/hr 0.00 in0.0 mm
02:00 AM 46.0°F7.8°C 20.5°F-6.4°C 36% 0.1 mph ENE0.2 kmh ENE 0.7 mph1.1 kmh 30.19 in1022.4 mb 0.00 in0.0 mm 0.00 in/hr0.0 mm/hr 0.00 in0.0 mm
03:00 AM 46.6°F8.1°C 19.0°F-7.2°C 33% 1.0 mph NE1.6 kmh NE 2.5 mph4.0 kmh 30.20 in1022.7 mb 0.00 in0.0 mm 0.00 in/hr0.0 mm/hr 0.00 in0.0 mm
04:00 AM 47.3°F8.5°C 17.4°F-8.1°C 30% 0.6 mph ESE1.0 kmh ESE 0.9 mph1.4 kmh 30.21 in1023.0 mb 0.00 in0.0 mm 0.00 in/hr0.0 mm/hr 0.00 in0.0 mm
05:00 AM 42.8°F6.0°C 17.7°F-7.9°C 36% 0.2 mph E0.3 kmh E 0.7 mph1.1 kmh 30.21 in1023.0 mb 0.00 in0.0 mm 0.00 in/hr0.0 mm/hr 0.00 in0.0 mm
06:00 AM 44.2°F6.8°C 16.9°F-8.4°C 33% 0.9 mph NNE1.4 kmh NNE 2.5 mph4.0 kmh 30.21 in1023.0 mb 0.00 in0.0 mm 0.00 in/hr0.0 mm/hr 0.00 in0.0 mm
07:00 AM 43.7°F6.5°C 15.7°F-9.1°C 32% 1.4 mph NNW2.3 kmh NNW 4.7 mph7.6 kmh 30.23 in1023.7 mb 0.00 in0.0 mm 0.00 in/hr0.0 mm/hr 0.00 in0.0 mm
08:00 AM 42.3°F5.7°C 15.2°F-9.3°C 33% Calm Calm -- 30.24 in1024.0 mb 0.00 in0.0 mm 0.00 in/hr0.0 mm/hr 0.00 in0.0 mm
09:00 AM 47.3°F8.5°C 17.4°F-8.1°C 30% 1.9 mph WSW3.1 kmh WSW 4.0 mph6.4 kmh 30.27 in1025.1 mb 0.00 in0.0 mm 0.00 in/hr0.0 mm/hr 0.00 in0.0 mm
10:00 AM 52.2°F11.2°C 20.0°F-6.7°C 28% 1.7 mph N2.7 kmh N 4.0 mph6.4 kmh 30.27 in1025.1 mb 0.00 in0.0 mm 0.00 in/hr0.0 mm/hr 0.00 in0.0 mm
11:00 AM 57.6°F14.2°C 18.9°F-7.3°C 22% 2.8 mph NNW4.5 kmh NNW 6.3 mph10.1 kmh 30.27 in1025.1 mb 0.00 in0.0 mm 0.00 in/hr0.0 mm/hr 0.00 in0.0 mm
12:00 PM 62.4°F16.9°C 23.0°F-5.0°C 22% 3.5 mph NW5.6 kmh NW 5.4 mph8.7 kmh 30.26 in1024.7 mb 0.00 in0.0 mm 0.00 in/hr0.0 mm/hr 0.00 in0.0 mm
01:00 PM 67.6°F19.8°C 22.6°F-5.2°C 18% 3.4 mph N5.5 kmh N 5.8 mph9.3 kmh 30.23 in1023.7 mb 0.00 in0.0 mm 0.00 in/hr0.0 mm/hr 0.00 in0.0 mm
02:00 PM 72.0°F22.2°C 23.3°F-4.8°C 16% 2.6 mph WSW4.2 kmh WSW 4.9 mph7.9 kmh 30.21 in1023.0 mb 0.00 in0.0 mm 0.00 in/hr0.0 mm/hr 0.00 in0.0 mm
03:00 PM 73.8°F23.2°C 24.7°F-4.1°C 16% 3.2 mph WSW5.1 kmh WSW 5.4 mph8.7 kmh 30.19 in1022.4 mb 0.00 in0.0 mm 0.00 in/hr0.0 mm/hr 0.00 in0.0 mm
04:00 PM 74.8°F23.8°C 25.6°F-3.6°C 16% 4.2 mph SW6.8 kmh SW 6.5 mph10.5 kmh 30.19 in1022.4 mb 0.00 in0.0 mm 0.00 in/hr0.0 mm/hr 0.00 in0.0 mm
05:00 PM 73.6°F23.1°C 24.6°F-4.1°C 16% 3.2 mph SW5.1 kmh SW 5.4 mph8.7 kmh 30.18 in1022.0 mb 0.00 in0.0 mm 0.00 in/hr0.0 mm/hr 0.00 in0.0 mm
06:00 PM 70.5°F21.4°C 23.6°F-4.7°C 17% 1.9 mph SSW3.1 kmh SSW 4.0 mph6.4 kmh 30.18 in1022.0 mb 0.00 in0.0 mm 0.00 in/hr0.0 mm/hr 0.00 in0.0 mm
07:00 PM 65.8°F18.8°C 24.8°F-4.0°C 21% 0.9 mph SE1.4 kmh SE 1.6 mph2.6 kmh 30.20 in1022.7 mb 0.00 in0.0 mm 0.00 in/hr0.0 mm/hr 0.00 in0.0 mm
08:00 PM 65.5°F18.6°C 25.6°F-3.6°C 22% 6.3 mph E10.1 kmh E 8.7 mph14.0 kmh 30.20 in1022.7 mb 0.00 in0.0 mm 0.00 in/hr0.0 mm/hr 0.00 in0.0 mm
09:00 PM 64.6°F18.1°C 25.9°F-3.4°C 23% 6.9 mph E11.1 kmh E 11.9 mph19.2 kmh 30.21 in1023.0 mb 0.00 in0.0 mm 0.00 in/hr0.0 mm/hr 0.00 in0.0 mm
10:00 PM 63.3°F17.4°C 26.9°F-2.8°C 25% 5.1 mph ESE8.2 kmh ESE 8.9 mph14.3 kmh 30.23 in1023.7 mb 0.00 in0.0 mm 0.00 in/hr0.0 mm/hr 0.00 in0.0 mm
11:00 PM 61.3°F16.3°C 25.2°F-3.8°C 25% 1.9 mph E3.1 kmh E 2.9 mph4.7 kmh 30.24 in1024.0 mb 0.00 in0.0 mm 0.00 in/hr0.0 mm/hr 0.00 in0.0 mm